sensor_id;sensor_type;location;lat;lon;timestamp;pressure;altitude;pressure_sealevel;temperature;humidity
39341;BME280;25059;52.132;21.062;2023-02-19T00:03:03;99830.19;;;1.96;100.00
39341;BME280;25059;52.132;21.062;2023-02-19T00:05:48;99812.97;;;1.92;100.00
39341;BME280;25059;52.132;21.062;2023-02-19T00:08:33;99811.19;;;1.96;100.00
39341;BME280;25059;52.132;21.062;2023-02-19T00:11:21;99800.84;;;1.94;100.00
39341;BME280;25059;52.132;21.062;2023-02-19T00:14:07;99811.19;;;1.97;100.00
39341;BME280;25059;52.132;21.062;2023-02-19T00:16:51;99811.16;;;1.99;100.00
39341;BME280;25059;52.132;21.062;2023-02-19T00:19:36;99805.88;;;2.06;100.00
39341;BME280;25059;52.132;21.062;2023-02-19T00:22:21;99811.91;;;2.08;100.00
39341;BME280;25059;52.132;21.062;2023-02-19T00:25:05;99804.97;;;2.09;100.00
39341;BME280;25059;52.132;21.062;2023-02-19T00:31:21;99807.59;;;2.06;100.00
39341;BME280;25059;52.132;21.062;2023-02-19T00:34:06;99797.06;;;2.19;100.00
39341;BME280;25059;52.132;21.062;2023-02-19T00:36:51;99810.91;;;2.18;100.00
39341;BME280;25059;52.132;21.062;2023-02-19T00:39:38;99800.41;;;2.28;100.00
39341;BME280;25059;52.132;21.062;2023-02-19T00:42:22;99791.69;;;2.32;100.00
39341;BME280;25059;52.132;21.062;2023-02-19T00:45:07;99791.72;;;2.30;100.00
39341;BME280;25059;52.132;21.062;2023-02-19T00:47:51;99798.69;;;2.26;100.00
39341;BME280;25059;52.132;21.062;2023-02-19T00:50:36;99796.03;;;2.31;100.00
39341;BME280;25059;52.132;21.062;2023-02-19T00:53:21;99785.56;;;2.37;100.00
39341;BME280;25059;52.132;21.062;2023-02-19T00:56:06;99782.94;;;2.39;100.00
39341;BME280;25059;52.132;21.062;2023-02-19T00:59:21;99792.47;;;2.37;100.00
39341;BME280;25059;52.132;21.062;2023-02-19T01:02:06;99796.78;;;2.38;100.00
39341;BME280;25059;52.132;21.062;2023-02-19T01:04:51;99809.75;;;2.38;100.00
39341;BME280;25059;52.132;21.062;2023-02-19T01:07:36;99809.72;;;2.41;100.00
39341;BME280;25059;52.132;21.062;2023-02-19T01:10:21;99797.50;;;2.47;100.00
39341;BME280;25059;52.132;21.062;2023-02-19T01:13:05;99802.75;;;2.44;100.00
39341;BME280;25059;52.132;21.062;2023-02-19T01:15:50;99801.94;;;2.39;100.00
39341;BME280;25059;52.132;21.062;2023-02-19T01:18:34;99797.59;;;2.41;100.00
39341;BME280;25059;52.132;21.062;2023-02-19T01:21:23;99791.56;;;2.39;100.00
39341;BME280;25059;52.132;21.062;2023-02-19T01:24:08;99799.25;;;2.47;100.00
39341;BME280;25059;52.132;21.062;2023-02-19T01:26:53;99788.00;;;2.46;100.00
39341;BME280;25059;52.132;21.062;2023-02-19T01:29:37;99781.16;;;2.42;100.00
39341;BME280;25059;52.132;21.062;2023-02-19T01:32:22;99783.69;;;2.47;100.00
39341;BME280;25059;52.132;21.062;2023-02-19T01:35:06;99782.81;;;2.46;100.00
39341;BME280;25059;52.132;21.062;2023-02-19T01:37:51;99782.88;;;2.43;100.00
39341;BME280;25059;52.132;21.062;2023-02-19T01:40:36;99784.59;;;2.43;100.00
39341;BME280;25059;52.132;21.062;2023-02-19T01:43:20;99788.94;;;2.42;100.00
39341;BME280;25059;52.132;21.062;2023-02-19T01:46:05;99799.31;;;2.42;100.00
39341;BME280;25059;52.132;21.062;2023-02-19T01:48:49;99797.56;;;2.43;100.00
39341;BME280;25059;52.132;21.062;2023-02-19T01:51:37;99785.50;;;2.42;100.00
39341;BME280;25059;52.132;21.062;2023-02-19T01:54:24;99796.75;;;2.39;100.00
39341;BME280;25059;52.132;21.062;2023-02-19T01:57:15;99796.78;;;2.38;100.00
39341;BME280;25059;52.132;21.062;2023-02-19T02:00:06;99793.25;;;2.43;100.00
39341;BME280;25059;52.132;21.062;2023-02-19T02:02:53;99794.13;;;2.42;100.00
39341;BME280;25059;52.132;21.062;2023-02-19T02:05:41;99794.16;;;2.41;100.00
39341;BME280;25059;52.132;21.062;2023-02-19T02:08:28;99790.63;;;2.45;100.00
39341;BME280;25059;52.132;21.062;2023-02-19T02:11:34;99789.84;;;2.40;100.00
39341;BME280;25059;52.132;21.062;2023-02-19T02:14:25;99797.56;;;2.44;100.00
39341;BME280;25059;52.132;21.062;2023-02-19T02:17:19;99794.13;;;2.42;100.00
39341;BME280;25059;52.132;21.062;2023-02-19T02:32:18;99794.09;;;2.44;100.00
39341;BME280;25059;52.132;21.062;2023-02-19T02:35:07;99793.31;;;2.39;100.00
39341;BME280;25059;52.132;21.062;2023-02-19T02:37:58;99789.84;;;2.40;100.00
39341;BME280;25059;52.132;21.062;2023-02-19T02:40:45;99797.66;;;2.37;100.00
39341;BME280;25059;52.132;21.062;2023-02-19T02:43:30;99801.13;;;2.36;100.00
39341;BME280;25059;52.132;21.062;2023-02-19T02:46:19;99806.31;;;2.37;100.00
39341;BME280;25059;52.132;21.062;2023-02-19T02:49:20;99798.53;;;2.36;100.00
39341;BME280;25059;52.132;21.062;2023-02-19T02:52:07;99785.66;;;2.31;100.00
39341;BME280;25059;52.132;21.062;2023-02-19T02:55:12;99791.66;;;2.35;100.00
39341;BME280;25059;52.132;21.062;2023-02-19T02:57:56;99784.69;;;2.38;100.00
39341;BME280;25059;52.132;21.062;2023-02-19T03:00:44;99786.47;;;2.35;100.00
39341;BME280;25059;52.132;21.062;2023-02-19T03:03:56;99790.81;;;2.33;100.00
39341;BME280;25059;52.132;21.062;2023-02-19T03:06:43;99783.94;;;2.30;100.00
39341;BME280;25059;52.132;21.062;2023-02-19T03:09:35;99791.66;;;2.33;100.00
39341;BME280;25059;52.132;21.062;2023-02-19T03:12:24;99767.53;;;2.28;100.00
39341;BME280;25059;52.132;21.062;2023-02-19T03:15:35;99771.84;;;2.29;100.00
39341;BME280;25059;52.132;21.062;2023-02-19T03:18:42;99782.28;;;2.24;100.00
39341;BME280;25059;52.132;21.062;2023-02-19T03:21:51;99768.41;;;2.27;100.00
39341;BME280;25059;52.132;21.062;2023-02-19T03:24:44;99780.56;;;2.25;100.00
39341;BME280;25059;52.132;21.062;2023-02-19T03:27:48;99793.56;;;2.22;100.00
39341;BME280;25059;52.132;21.062;2023-02-19T03:30:37;99812.59;;;2.21;100.00
39341;BME280;25059;52.132;21.062;2023-02-19T03:33:26;99801.38;;;2.19;100.00
39341;BME280;25059;52.132;21.062;2023-02-19T03:36:14;99812.56;;;2.22;100.00
39341;BME280;25059;52.132;21.062;2023-02-19T03:39:02;99781.53;;;2.16;100.00
39341;BME280;25059;52.132;21.062;2023-02-19T03:44:43;99771.16;;;2.16;100.00
39341;BME280;25059;52.132;21.062;2023-02-19T03:47:36;99768.63;;;2.12;100.00
39341;BME280;25059;52.132;21.062;2023-02-19T03:50:30;99772.16;;;2.08;100.00
39341;BME280;25059;52.132;21.062;2023-02-19T03:56:48;99759.31;;;2.00;100.00
39341;BME280;25059;52.132;21.062;2023-02-19T03:59:42;99754.19;;;1.94;100.00
39341;BME280;25059;52.132;21.062;2023-02-19T04:02:33;99756.03;;;1.87;100.00
39341;BME280;25059;52.132;21.062;2023-02-19T04:05:26;99753.44;;;1.86;100.00
39341;BME280;25059;52.132;21.062;2023-02-19T04:08:15;99751.66;;;1.89;100.00
39341;BME280;25059;52.132;21.062;2023-02-19T04:11:02;99774.91;;;1.97;100.00
39341;BME280;25059;52.132;21.062;2023-02-19T04:13:53;99768.81;;;1.98;100.00
39341;BME280;25059;52.132;21.062;2023-02-19T04:16:40;99751.53;;;1.99;100.00
39341;BME280;25059;52.132;21.062;2023-02-19T04:19:29;99752.50;;;1.91;100.00
39341;BME280;25059;52.132;21.062;2023-02-19T04:22:16;99755.09;;;1.91;100.00
39341;BME280;25059;52.132;21.062;2023-02-19T04:25:02;99740.44;;;1.89;100.00
39341;BME280;25059;52.132;21.062;2023-02-19T04:27:47;99745.56;;;1.93;100.00
39341;BME280;25059;52.132;21.062;2023-02-19T04:30:32;99741.31;;;1.88;100.00
39341;BME280;25059;52.132;21.062;2023-02-19T04:33:16;99733.56;;;1.86;100.00
39341;BME280;25059;52.132;21.062;2023-02-19T04:36:01;99742.19;;;1.87;100.00
39341;BME280;25059;52.132;21.062;2023-02-19T04:38:45;99737.13;;;1.79;100.00
39341;BME280;25059;52.132;21.062;2023-02-19T04:41:30;99730.28;;;1.75;100.00
39341;BME280;25059;52.132;21.062;2023-02-19T04:44:15;99728.63;;;1.68;100.00
39341;BME280;25059;52.132;21.062;2023-02-19T04:46:59;99732.03;;;1.72;100.00
39341;BME280;25059;52.132;21.062;2023-02-19T04:52:48;99738.94;;;1.73;100.00
39341;BME280;25059;52.132;21.062;2023-02-19T04:55:37;99748.47;;;1.69;100.00
39341;BME280;25059;52.132;21.062;2023-02-19T04:58:22;99738.03;;;1.75;100.00
39341;BME280;25059;52.132;21.062;2023-02-19T05:01:08;99736.28;;;1.77;100.00
39341;BME280;25059;52.132;21.062;2023-02-19T05:03:53;99733.78;;;1.71;100.00
39341;BME280;25059;52.132;21.062;2023-02-19T05:06:38;99726.88;;;1.72;100.00
39341;BME280;25059;52.132;21.062;2023-02-19T05:09:22;99740.59;;;1.78;100.00
39341;BME280;25059;52.132;21.062;2023-02-19T05:12:07;99734.50;;;1.81;100.00
39341;BME280;25059;52.132;21.062;2023-02-19T05:14:51;99740.59;;;1.78;100.00
39341;BME280;25059;52.132;21.062;2023-02-19T05:17:36;99726.88;;;1.70;100.00
39341;BME280;25059;52.132;21.062;2023-02-19T05:20:21;99724.34;;;1.66;100.00
39341;BME280;25059;52.132;21.062;2023-02-19T05:23:06;99720.91;;;1.64;100.00
39341;BME280;25059;52.132;21.062;2023-02-19T05:25:50;99719.28;;;1.56;100.00
39341;BME280;25059;52.132;21.062;2023-02-19T05:28:38;99716.59;;;1.64;100.00
39341;BME280;25059;52.132;21.062;2023-02-19T05:31:22;99719.22;;;1.63;100.00
39341;BME280;25059;52.132;21.062;2023-02-19T05:34:07;99718.22;;;1.73;100.00
39341;BME280;25059;52.132;21.062;2023-02-19T05:36:52;99715.63;;;1.73;100.00
39341;BME280;25059;52.132;21.062;2023-02-19T05:39:36;99704.41;;;1.71;100.00
39341;BME280;25059;52.132;21.062;2023-02-19T05:42:21;99695.75;;;1.73;100.00
39341;BME280;25059;52.132;21.062;2023-02-19T05:45:06;99713.00;;;1.74;100.00
39341;BME280;25059;52.132;21.062;2023-02-19T05:47:50;99706.06;;;1.78;100.00
39341;BME280;25059;52.132;21.062;2023-02-19T05:50:36;99707.72;;;1.82;100.00
39341;BME280;25059;52.132;21.062;2023-02-19T05:53:21;99712.06;;;1.80;100.00
39341;BME280;25059;52.132;21.062;2023-02-19T05:59:21;99706.81;;;1.86;100.00
39341;BME280;25059;52.132;21.062;2023-02-19T06:02:06;99712.81;;;1.88;100.00
39341;BME280;25059;52.132;21.062;2023-02-19T06:04:50;99711.84;;;1.95;100.00
39341;BME280;25059;52.132;21.062;2023-02-19T06:07:35;99724.84;;;1.93;100.00
39341;BME280;25059;52.132;21.062;2023-02-19T06:10:22;99714.44;;;1.95;100.00
39341;BME280;25059;52.132;21.062;2023-02-19T06:13:08;99707.50;;;1.97;100.00
39341;BME280;25059;52.132;21.062;2023-02-19T06:15:52;99717.00;;;1.98;100.00
39341;BME280;25059;52.132;21.062;2023-02-19T06:18:37;99722.22;;;1.95;100.00
39341;BME280;25059;52.132;21.062;2023-02-19T06:21:23;99722.19;;;1.97;100.00
39341;BME280;25059;52.132;21.062;2023-02-19T06:24:08;99717.03;;;1.95;100.00
39341;BME280;25059;52.132;21.062;2023-02-19T06:26:53;99723.06;;;1.96;100.00
39341;BME280;25059;52.132;21.062;2023-02-19T06:29:38;99748.09;;;1.98;100.00
39341;BME280;25059;52.132;21.062;2023-02-19T06:32:22;99742.94;;;1.97;100.00
39341;BME280;25059;52.132;21.062;2023-02-19T06:35:08;99753.22;;;2.01;100.00
39341;BME280;25059;52.132;21.062;2023-02-19T06:37:52;99737.72;;;2.00;100.00
39341;BME280;25059;52.132;21.062;2023-02-19T06:40:37;99733.34;;;2.02;100.00
39341;BME280;25059;52.132;21.062;2023-02-19T06:43:22;99738.47;;;2.06;100.00
39341;BME280;25059;52.132;21.062;2023-02-19T06:46:07;99737.53;;;2.12;100.00
39341;BME280;25059;52.132;21.062;2023-02-19T06:48:51;99735.78;;;2.12;100.00
39341;BME280;25059;52.132;21.062;2023-02-19T06:51:36;99730.44;;;2.23;100.00
39341;BME280;25059;52.132;21.062;2023-02-19T06:54:21;99735.56;;;2.28;100.00
39341;BME280;25059;52.132;21.062;2023-02-19T06:57:05;99732.03;;;2.33;100.00
39341;BME280;25059;52.132;21.062;2023-02-19T06:59:50;99730.31;;;2.32;100.00
39341;BME280;25059;52.132;21.062;2023-02-19T07:02:34;99732.88;;;2.34;100.00
39341;BME280;25059;52.132;21.062;2023-02-19T07:05:19;99746.72;;;2.33;100.00
39341;BME280;25059;52.132;21.062;2023-02-19T07:08:04;99749.38;;;2.30;100.00
39341;BME280;25059;52.132;21.062;2023-02-19T07:10:57;99748.47;;;2.31;100.00
39341;BME280;25059;52.132;21.062;2023-02-19T07:13:41;99762.34;;;2.28;100.00
39341;BME280;25059;52.132;21.062;2023-02-19T07:16:27;99745.78;;;2.37;100.00
39341;BME280;25059;52.132;21.062;2023-02-19T07:19:12;99739.69;;;2.39;100.00
39341;BME280;25059;52.132;21.062;2023-02-19T07:21:58;99739.78;;;2.35;100.00
39341;BME280;25059;52.132;21.062;2023-02-19T07:24:42;99753.72;;;2.28;100.00
39341;BME280;25059;52.132;21.062;2023-02-19T07:27:26;99744.16;;;2.31;100.00
39341;BME280;25059;52.132;21.062;2023-02-19T07:30:11;99753.56;;;2.38;100.00
39341;BME280;25059;52.132;21.062;2023-02-19T07:32:55;99755.25;;;2.39;100.00
39341;BME280;25059;52.132;21.062;2023-02-19T07:35:45;99754.38;;;2.40;100.00
39341;BME280;25059;52.132;21.062;2023-02-19T07:38:29;99755.25;;;2.41;100.00
39341;BME280;25059;52.132;21.062;2023-02-19T07:41:14;99765.63;;;2.41;100.00
39341;BME280;25059;52.132;21.062;2023-02-19T07:43:58;99754.34;;;2.43;100.00
39341;BME280;25059;52.132;21.062;2023-02-19T07:46:45;99755.97;;;2.49;100.00
39341;BME280;25059;52.132;21.062;2023-02-19T07:49:30;99755.91;;;2.53;100.00
39341;BME280;25059;52.132;21.062;2023-02-19T07:52:16;99759.31;;;2.57;100.00
39341;BME280;25059;52.132;21.062;2023-02-19T07:55:02;99773.13;;;2.57;100.00
39341;BME280;25059;52.132;21.062;2023-02-19T07:57:47;99757.59;;;2.56;100.00
39341;BME280;25059;52.132;21.062;2023-02-19T08:00:31;99760.09;;;2.62;100.00
39341;BME280;25059;52.132;21.062;2023-02-19T08:03:16;99758.25;;;2.69;100.00
39341;BME280;25059;52.132;21.062;2023-02-19T08:06:00;99762.47;;;2.74;100.00
39341;BME280;25059;52.132;21.062;2023-02-19T08:08:45;99777.13;;;2.78;100.00
39341;BME280;25059;52.132;21.062;2023-02-19T08:11:30;99770.13;;;2.83;100.00
39341;BME280;25059;52.132;21.062;2023-02-19T08:14:34;99768.50;;;2.76;100.00
39341;BME280;25059;52.132;21.062;2023-02-19T08:17:18;99774.66;;;2.71;100.00
39341;BME280;25059;52.132;21.062;2023-02-19T08:20:03;99770.16;;;2.80;100.00
39341;BME280;25059;52.132;21.062;2023-02-19T08:22:48;99779.72;;;2.78;100.00
39341;BME280;25059;52.132;21.062;2023-02-19T08:25:32;99781.50;;;2.75;100.00
39341;BME280;25059;52.132;21.062;2023-02-19T08:28:18;99786.75;;;2.72;100.00
39341;BME280;25059;52.132;21.062;2023-02-19T08:31:06;99785.78;;;2.77;100.00
39341;BME280;25059;52.132;21.062;2023-02-19T08:33:51;99775.19;;;2.91;100.00
39341;BME280;25059;52.132;21.062;2023-02-19T08:36:35;99781.13;;;2.98;100.00
39341;BME280;25059;52.132;21.062;2023-02-19T08:39:20;99787.19;;;2.97;100.00
39341;BME280;25059;52.132;21.062;2023-02-19T08:42:05;99788.13;;;2.92;100.00
39341;BME280;25059;52.132;21.062;2023-02-19T08:44:49;99791.44;;;3.01;100.00
39341;BME280;25059;52.132;21.062;2023-02-19T08:47:34;99788.28;;;3.33;100.00
39341;BME280;25059;52.132;21.062;2023-02-19T08:50:19;99786.84;;;3.61;100.00
39341;BME280;25059;52.132;21.062;2023-02-19T08:53:06;99790.91;;;3.74;100.00
39341;BME280;25059;52.132;21.062;2023-02-19T08:55:52;99778.91;;;3.69;100.00
39341;BME280;25059;52.132;21.062;2023-02-19T08:58:37;99787.56;;;3.69;100.00
39341;BME280;25059;52.132;21.062;2023-02-19T09:01:22;99781.75;;;3.56;100.00
39341;BME280;25059;52.132;21.062;2023-02-19T09:04:10;99771.59;;;3.44;100.00
39341;BME280;25059;52.132;21.062;2023-02-19T09:06:55;99783.34;;;3.19;100.00
39341;BME280;25059;52.132;21.062;2023-02-19T09:09:39;99775.56;;;3.17;100.00
39341;BME280;25059;52.132;21.062;2023-02-19T09:12:24;99790.22;;;3.21;100.00
39341;BME280;25059;52.132;21.062;2023-02-19T09:15:09;99783.41;;;3.14;100.00
39341;BME280;25059;52.132;21.062;2023-02-19T09:17:53;99774.53;;;3.26;100.00
39341;BME280;25059;52.132;21.062;2023-02-19T09:20:38;99790.22;;;3.21;100.00
39341;BME280;25059;52.132;21.062;2023-02-19T09:23:23;99785.97;;;3.17;100.00
39341;BME280;25059;52.132;21.062;2023-02-19T09:26:08;99756.56;;;3.15;100.00
39341;BME280;25059;52.132;21.062;2023-02-19T09:28:54;99778.94;;;3.22;100.00
39341;BME280;25059;52.132;21.062;2023-02-19T09:31:39;99787.41;;;3.32;100.00
39341;BME280;25059;52.132;21.062;2023-02-19T09:34:24;99778.91;;;3.69;100.00
39341;BME280;25059;52.132;21.062;2023-02-19T09:37:10;99783.34;;;4.05;100.00
39341;BME280;25059;52.132;21.062;2023-02-19T09:39:54;99781.53;;;4.09;100.00
39341;BME280;25059;52.132;21.062;2023-02-19T09:42:40;99781.66;;;4.03;100.00
39341;BME280;25059;52.132;21.062;2023-02-19T09:45:26;99787.03;;;3.95;100.00
39341;BME280;25059;52.132;21.062;2023-02-19T09:48:11;99781.81;;;3.95;100.00
39341;BME280;25059;52.132;21.062;2023-02-19T09:50:56;99785.25;;;3.97;100.00
39341;BME280;25059;52.132;21.062;2023-02-19T09:53:43;99781.72;;;4.00;100.00
39341;BME280;25059;52.132;21.062;2023-02-19T09:56:29;99784.81;;;3.77;100.00
39341;BME280;25059;52.132;21.062;2023-02-19T09:59:20;99799.69;;;3.69;100.00
39341;BME280;25059;52.132;21.062;2023-02-19T10:02:23;99799.09;;;3.56;100.00
39341;BME280;25059;52.132;21.062;2023-02-19T10:05:11;99803.47;;;3.52;100.00
39341;BME280;25059;52.132;21.062;2023-02-19T10:07:57;99794.63;;;3.63;100.00
39341;BME280;25059;52.132;21.062;2023-02-19T10:10:42;99798.03;;;3.65;100.00
39341;BME280;25059;52.132;21.062;2023-02-19T10:13:31;99794.25;;;3.81;100.00
39341;BME280;25059;52.132;21.062;2023-02-19T10:16:23;99803.38;;;4.00;100.00
39341;BME280;25059;52.132;21.062;2023-02-19T10:19:11;99788.88;;;4.29;100.00
39341;BME280;25059;52.132;21.062;2023-02-19T10:22:16;99780.03;;;4.37;100.00
39341;BME280;25059;52.132;21.062;2023-02-19T10:25:01;99790.97;;;4.51;100.00
39341;BME280;25059;52.132;21.062;2023-02-19T10:27:46;99786.13;;;4.36;100.00
39341;BME280;25059;52.132;21.062;2023-02-19T10:30:32;99798.19;;;4.39;100.00
39341;BME280;25059;52.132;21.062;2023-02-19T10:33:18;99793.13;;;4.70;100.00
39341;BME280;25059;52.132;21.062;2023-02-19T10:36:05;99805.66;;;4.90;100.00
39341;BME280;25059;52.132;21.062;2023-02-19T10:38:50;99802.31;;;4.84;100.00
39341;BME280;25059;52.132;21.062;2023-02-19T10:41:39;99805.47;;;4.62;100.00
39341;BME280;25059;52.132;21.062;2023-02-19T10:44:27;99807.50;;;4.49;100.00
39341;BME280;25059;52.132;21.062;2023-02-19T10:47:18;99818.81;;;4.48;100.00
39341;BME280;25059;52.132;21.062;2023-02-19T10:50:03;99811.75;;;4.53;100.00
39341;BME280;25059;52.132;21.062;2023-02-19T10:52:52;99816.25;;;4.46;100.00
39341;BME280;25059;52.132;21.062;2023-02-19T10:55:38;99810.69;;;4.62;100.00
39341;BME280;25059;52.132;21.062;2023-02-19T10:58:24;99811.84;;;4.48;100.00
39341;BME280;25059;52.132;21.062;2023-02-19T11:04:17;99823.28;;;5.14;100.00
39341;BME280;25059;52.132;21.062;2023-02-19T11:07:13;99807.16;;;5.65;100.00
39341;BME280;25059;52.132;21.062;2023-02-19T11:09:59;99812.25;;;5.37;100.00
39341;BME280;25059;52.132;21.062;2023-02-19T11:12:47;99808.78;;;5.04;100.00
39341;BME280;25059;52.132;21.062;2023-02-19T11:15:34;99810.31;;;4.77;100.00
39341;BME280;25059;52.132;21.062;2023-02-19T11:21:24;99804.63;;;4.97;100.00
39341;BME280;25059;52.132;21.062;2023-02-19T11:24:22;99825.50;;;5.29;100.00
39341;BME280;25059;52.132;21.062;2023-02-19T11:27:17;99820.16;;;5.00;100.00
39341;BME280;25059;52.132;21.062;2023-02-19T11:36:23;99811.94;;;5.16;100.00
39341;BME280;25059;52.132;21.062;2023-02-19T11:45:36;99820.50;;;5.54;100.00
39341;BME280;25059;52.132;21.062;2023-02-19T11:54:24;99829.19;;;4.86;100.00
39341;BME280;25059;52.132;21.062;2023-02-19T12:03:30;99827.47;;;4.85;100.00
39341;BME280;25059;52.132;21.062;2023-02-19T12:30:51;99844.50;;;7.11;97.76
39341;BME280;25059;52.132;21.062;2023-02-19T12:43:21;99854.19;;;9.82;72.31
39341;BME280;25059;52.132;21.062;2023-02-19T12:46:08;99845.75;;;10.52;66.70
39341;BME280;25059;52.132;21.062;2023-02-19T12:49:05;99862.69;;;9.26;71.81
39341;BME280;25059;52.132;21.062;2023-02-19T12:51:58;99851.38;;;10.44;66.92
39341;BME280;25059;52.132;21.062;2023-02-19T12:54:47;99862.00;;;9.63;68.00
39341;BME280;25059;52.132;21.062;2023-02-19T12:57:35;99875.84;;;7.64;78.24
39341;BME280;25059;52.132;21.062;2023-02-19T13:00:38;99861.16;;;6.53;87.75
39341;BME280;25059;52.132;21.062;2023-02-19T13:03:31;99867.97;;;6.29;96.07
39341;BME280;25059;52.132;21.062;2023-02-19T13:06:36;99884.00;;;6.17;96.23
39341;BME280;25059;52.132;21.062;2023-02-19T13:09:33;99881.72;;;5.72;100.00
39341;BME280;25059;52.132;21.062;2023-02-19T13:12:25;99917.44;;;5.34;100.00
39341;BME280;25059;52.132;21.062;2023-02-19T13:17:59;99902.13;;;4.85;100.00
39341;BME280;25059;52.132;21.062;2023-02-19T13:20:44;99890.31;;;4.70;100.00
39341;BME280;25059;52.132;21.062;2023-02-19T13:23:34;99885.31;;;4.61;100.00
39341;BME280;25059;52.132;21.062;2023-02-19T13:30:14;99898.06;;;4.73;100.00
39341;BME280;25059;52.132;21.062;2023-02-19T13:33:43;99903.75;;;4.52;100.00
39341;BME280;25059;52.132;21.062;2023-02-19T13:36:30;99903.13;;;4.41;100.00
39341;BME280;25059;52.132;21.062;2023-02-19T13:39:18;99894.59;;;4.33;100.00
39341;BME280;25059;52.132;21.062;2023-02-19T13:42:04;99903.31;;;4.32;100.00
39341;BME280;25059;52.132;21.062;2023-02-19T13:44:49;99918.06;;;4.31;100.00
39341;BME280;25059;52.132;21.062;2023-02-19T13:50:40;99916.50;;;4.22;100.00
39341;BME280;25059;52.132;21.062;2023-02-19T13:59:33;99929.97;;;6.52;96.79
39341;BME280;25059;52.132;21.062;2023-02-19T14:05:09;99931.09;;;4.71;100.00
39341;BME280;25059;52.132;21.062;2023-02-19T14:07:54;99937.34;;;4.63;100.00
39341;BME280;25059;52.132;21.062;2023-02-19T14:14:36;99942.97;;;4.83;100.00
39341;BME280;25059;52.132;21.062;2023-02-19T14:17:40;99951.13;;;5.43;100.00
39341;BME280;25059;52.132;21.062;2023-02-19T14:23:30;99951.56;;;7.42;88.16
39341;BME280;25059;52.132;21.062;2023-02-19T14:26:15;99956.63;;;6.01;95.15
39341;BME280;25059;52.132;21.062;2023-02-19T14:29:01;99953.31;;;6.27;97.50
39341;BME280;25059;52.132;21.062;2023-02-19T14:31:46;99949.97;;;6.22;98.53
39341;BME280;25059;52.132;21.062;2023-02-19T14:34:31;99955.66;;;7.23;90.79
39341;BME280;25059;52.132;21.062;2023-02-19T14:37:18;99950.06;;;5.84;94.61
39341;BME280;25059;52.132;21.062;2023-02-19T14:40:04;99946.50;;;8.14;83.51
39341;BME280;25059;52.132;21.062;2023-02-19T14:42:50;99965.56;;;5.92;93.08
39341;BME280;25059;52.132;21.062;2023-02-19T14:45:42;99972.50;;;5.58;96.52
39341;BME280;25059;52.132;21.062;2023-02-19T14:48:32;99961.97;;;5.25;100.00
39341;BME280;25059;52.132;21.062;2023-02-19T14:51:24;99963.31;;;5.06;100.00
39341;BME280;25059;52.132;21.062;2023-02-19T14:54:16;99971.53;;;4.88;100.00
39341;BME280;25059;52.132;21.062;2023-02-19T14:57:02;99976.94;;;5.17;100.00
39341;BME280;25059;52.132;21.062;2023-02-19T15:02:41;99978.47;;;4.87;100.00
39341;BME280;25059;52.132;21.062;2023-02-19T15:08:17;99994.00;;;4.50;100.00
39341;BME280;25059;52.132;21.062;2023-02-19T15:11:10;99999.31;;;4.45;100.00
39341;BME280;25059;52.132;21.062;2023-02-19T15:13:59;100004.59;;;4.41;96.03
39341;BME280;25059;52.132;21.062;2023-02-19T15:16:44;99992.47;;;4.40;91.50
39341;BME280;25059;52.132;21.062;2023-02-19T15:19:32;100009.00;;;4.37;90.78
39341;BME280;25059;52.132;21.062;2023-02-19T15:22:21;100012.53;;;4.35;92.66
39341;BME280;25059;52.132;21.062;2023-02-19T15:25:15;100020.34;;;4.35;92.93
39341;BME280;25059;52.132;21.062;2023-02-19T15:31:13;100031.84;;;4.21;93.49
39341;BME280;25059;52.132;21.062;2023-02-19T15:33:57;100036.34;;;4.13;95.00
39341;BME280;25059;52.132;21.062;2023-02-19T15:36:43;100040.75;;;4.10;96.34
39341;BME280;25059;52.132;21.062;2023-02-19T15:39:34;100044.25;;;4.07;97.33
39341;BME280;25059;52.132;21.062;2023-02-19T15:42:24;100043.16;;;4.20;98.06
39341;BME280;25059;52.132;21.062;2023-02-19T15:45:43;100050.16;;;4.17;99.02
39341;BME280;25059;52.132;21.062;2023-02-19T15:48:36;100049.56;;;4.01;100.00
39341;BME280;25059;52.132;21.062;2023-02-19T15:51:26;100045.41;;;3.91;100.00
39341;BME280;25059;52.132;21.062;2023-02-19T15:54:20;100051.47;;;3.92;100.00
39341;BME280;25059;52.132;21.062;2023-02-19T15:57:13;100048.91;;;3.88;100.00
39341;BME280;25059;52.132;21.062;2023-02-19T16:00:10;100058.53;;;3.83;100.00
39341;BME280;25059;52.132;21.062;2023-02-19T16:02:57;100066.38;;;3.80;100.00
39341;BME280;25059;52.132;21.062;2023-02-19T16:05:42;100073.44;;;3.72;100.00
39341;BME280;25059;52.132;21.062;2023-02-19T16:08:31;100069.25;;;3.64;100.00
39341;BME280;25059;52.132;21.062;2023-02-19T16:11:28;100078.97;;;3.49;100.00
39341;BME280;25059;52.132;21.062;2023-02-19T16:14:16;100098.97;;;3.44;100.00
39341;BME280;25059;52.132;21.062;2023-02-19T16:19:56;100093.81;;;3.41;100.00
39341;BME280;25059;52.132;21.062;2023-02-19T16:22:42;100096.38;;;3.44;100.00
39341;BME280;25059;52.132;21.062;2023-02-19T16:28:20;100104.31;;;3.35;100.00
39341;BME280;25059;52.132;21.062;2023-02-19T16:31:08;100115.66;;;3.28;100.00
39341;BME280;25059;52.132;21.062;2023-02-19T16:33:53;100121.84;;;3.19;100.00
39341;BME280;25059;52.132;21.062;2023-02-19T16:36:38;100130.56;;;3.12;100.00
39341;BME280;25059;52.132;21.062;2023-02-19T16:39:25;100136.81;;;2.98;100.00
39341;BME280;25059;52.132;21.062;2023-02-19T16:42:11;100126.53;;;2.90;100.00
39341;BME280;25059;52.132;21.062;2023-02-19T16:44:56;100152.34;;;3.01;100.00
39341;BME280;25059;52.132;21.062;2023-02-19T16:47:41;100142.94;;;2.90;100.00
39341;BME280;25059;52.132;21.062;2023-02-19T16:50:31;100146.31;;;3.00;100.00
39341;BME280;25059;52.132;21.062;2023-02-19T16:53:18;100150.66;;;2.98;100.00